createdAt,value
2018-01-14T00:00:20.928Z,101129.11
2018-01-14T00:01:23.459Z,101131.62
2018-01-14T00:02:25.943Z,101129.89
2018-01-14T00:03:28.450Z,101127.80
2018-01-14T00:04:30.913Z,101126.64
2018-01-14T00:05:33.377Z,101126.77
2018-01-14T00:06:35.855Z,101126.64
2018-01-14T00:07:38.322Z,101125.83
2018-01-14T00:08:40.796Z,101127.33
2018-01-14T00:09:43.294Z,101125.32
2018-01-14T00:10:45.757Z,101124.87
2018-01-14T00:11:48.235Z,101121.69
2018-01-14T00:12:50.728Z,101126.38
2018-01-14T00:13:53.226Z,101130.16
2018-01-14T00:14:55.735Z,101123.01
2018-01-14T00:15:58.211Z,101127.27
2018-01-14T00:17:00.684Z,101119.66
2018-01-14T00:18:03.164Z,101115.48
2018-01-14T00:19:05.657Z,101118.23
2018-01-14T00:20:08.136Z,101113.59
2018-01-14T00:21:10.598Z,101114.61
2018-01-14T00:22:13.062Z,101114.17
2018-01-14T00:23:15.536Z,101112.02
2018-01-14T00:24:18.014Z,101119.97
2018-01-14T00:25:20.482Z,101121.91
2018-01-14T00:26:22.959Z,101118.80
2018-01-14T00:27:25.431Z,101106.18
2018-01-14T00:28:27.907Z,101119.62
2018-01-14T00:29:30.371Z,101117.85
2018-01-14T00:30:32.844Z,101115.80
2018-01-14T00:31:35.332Z,101120.63
2018-01-14T00:32:37.809Z,101115.31
2018-01-14T00:33:40.291Z,101119.70
2018-01-14T00:34:42.775Z,101115.56
2018-01-14T00:35:45.247Z,101116.11
2018-01-14T00:36:47.727Z,101114.44
2018-01-14T00:37:50.199Z,101119.61
2018-01-14T00:38:52.661Z,101120.33
2018-01-14T00:39:55.131Z,101114.30
2018-01-14T00:40:57.614Z,101115.20
2018-01-14T00:42:00.078Z,101111.41
2018-01-14T00:43:02.553Z,101113.27
2018-01-14T00:44:05.043Z,101108.77
2018-01-14T00:45:07.505Z,101109.16
2018-01-14T00:46:09.989Z,101112.64
2018-01-14T00:47:12.466Z,101108.00
2018-01-14T00:48:14.961Z,101107.01
2018-01-14T00:49:17.430Z,101096.40
2018-01-14T00:50:19.896Z,101103.61
2018-01-14T00:51:22.413Z,101098.16
2018-01-14T00:52:24.953Z,101090.56
2018-01-14T00:53:27.465Z,101096.54
2018-01-14T00:54:29.922Z,101093.98
2018-01-14T00:55:32.390Z,101092.67
2018-01-14T00:56:34.880Z,101089.05
2018-01-14T00:57:37.354Z,101093.94
2018-01-14T00:58:39.828Z,101094.23
2018-01-14T00:59:42.308Z,101089.38
2018-01-14T01:00:44.808Z,101087.88
2018-01-14T01:01:47.289Z,101084.94
2018-01-14T01:02:49.771Z,101093.84
2018-01-14T01:03:52.247Z,101096.80
2018-01-14T01:04:54.726Z,101084.00
2018-01-14T01:05:57.199Z,101091.66
2018-01-14T01:06:59.702Z,101090.84
2018-01-14T01:08:02.166Z,101090.21
2018-01-14T01:09:04.685Z,101086.74
2018-01-14T01:10:07.159Z,101087.61
2018-01-14T01:11:09.631Z,101092.24
2018-01-14T01:12:12.143Z,101085.65
2018-01-14T01:13:14.616Z,101092.09
2018-01-14T01:14:17.099Z,101096.66
2018-01-14T01:15:19.562Z,101086.74
2018-01-14T01:16:22.022Z,101097.89
2018-01-14T01:17:24.525Z,101097.16
2018-01-14T01:18:27.004Z,101096.66
2018-01-14T01:19:29.468Z,101101.17
2018-01-14T01:20:31.937Z,101097.36
2018-01-14T01:21:34.416Z,101095.16
2018-01-14T01:22:36.903Z,101096.12
2018-01-14T01:23:39.380Z,101103.36
2018-01-14T01:24:41.864Z,101105.83
2018-01-14T01:25:44.322Z,101108.45
2018-01-14T01:26:46.786Z,101113.41
2018-01-14T01:27:49.414Z,101116.77
2018-01-14T01:28:51.880Z,101103.19
2018-01-14T01:29:54.352Z,101111.48
2018-01-14T01:30:56.824Z,101105.81
2018-01-14T01:31:59.324Z,101114.20
2018-01-14T01:33:01.921Z,101108.61
2018-01-14T01:34:04.383Z,101110.55
2018-01-14T01:35:06.846Z,101110.03
2018-01-14T01:36:09.349Z,101113.08
2018-01-14T01:37:11.810Z,101108.47
2018-01-14T01:38:14.283Z,101103.56
2018-01-14T01:39:16.771Z,101102.69
2018-01-14T01:40:19.265Z,101113.27
2018-01-14T01:41:21.743Z,101105.47
2018-01-14T01:42:24.201Z,101109.01
2018-01-14T01:43:26.674Z,101103.81
2018-01-14T01:44:29.158Z,101102.95
2018-01-14T01:45:31.644Z,101104.94
2018-01-14T01:46:34.113Z,101106.16
2018-01-14T01:47:37.501Z,101103.80
2018-01-14T01:48:39.961Z,101102.88
2018-01-14T01:49:42.448Z,101107.70
2018-01-14T01:50:44.910Z,101103.36
2018-01-14T01:51:47.384Z,101097.64
2018-01-14T01:52:49.858Z,101098.98
2018-01-14T01:53:52.321Z,101104.63
2018-01-14T01:54:54.795Z,101098.27
2018-01-14T01:55:57.271Z,101104.64
2018-01-14T01:56:59.744Z,101101.87
2018-01-14T01:58:02.202Z,101096.56
2018-01-14T01:59:04.680Z,101103.05
2018-01-14T02:00:07.170Z,101100.42
2018-01-14T02:01:09.626Z,101099.91
2018-01-14T02:02:12.104Z,101098.06
2018-01-14T02:03:14.576Z,101094.68
2018-01-14T02:04:17.078Z,101092.30
2018-01-14T02:05:19.553Z,101085.98
2018-01-14T02:06:22.010Z,101088.03
2018-01-14T02:07:24.483Z,101085.98
2018-01-14T02:08:26.965Z,101087.14
2018-01-14T02:09:29.447Z,101081.58
2018-01-14T02:10:31.923Z,101090.47
2018-01-14T02:11:34.381Z,101091.97
2018-01-14T02:12:36.845Z,101086.86
2018-01-14T02:13:39.398Z,101087.28
2018-01-14T02:14:41.899Z,101082.56
2018-01-14T02:15:44.365Z,101077.98
2018-01-14T02:16:46.847Z,101080.31
2018-01-14T02:17:49.324Z,101089.64
2018-01-14T02:18:51.786Z,101081.56
2018-01-14T02:19:54.253Z,101077.90
2018-01-14T02:20:56.722Z,101083.45
2018-01-14T02:21:59.203Z,101073.05
2018-01-14T02:23:01.697Z,101075.69
2018-01-14T02:24:04.166Z,101075.70
2018-01-14T02:25:06.626Z,101076.91
2018-01-14T02:26:09.104Z,101074.27
2018-01-14T02:27:11.577Z,101080.95
2018-01-14T02:28:14.080Z,101074.90
2018-01-14T02:29:16.558Z,101084.37
2018-01-14T02:30:19.047Z,101082.77
2018-01-14T02:31:21.507Z,101084.85
2018-01-14T02:32:23.977Z,101082.82
2018-01-14T02:33:26.447Z,101084.49
2018-01-14T02:34:28.923Z,101078.91
2018-01-14T02:35:31.386Z,101091.09
2018-01-14T02:36:33.845Z,101080.70
2018-01-14T02:37:36.320Z,101083.59
2018-01-14T02:38:38.796Z,101083.41
2018-01-14T02:39:41.276Z,101087.45
2018-01-14T02:40:43.739Z,101082.38
2018-01-14T02:41:46.203Z,101090.48
2018-01-14T02:42:48.725Z,101084.19
2018-01-14T02:43:51.181Z,101076.05
2018-01-14T02:44:53.646Z,101071.84
2018-01-14T02:45:56.110Z,101070.19
2018-01-14T02:46:58.563Z,101071.41
2018-01-14T02:48:01.023Z,101070.25
2018-01-14T02:49:03.481Z,101074.48
2018-01-14T02:50:05.946Z,101073.27
2018-01-14T02:51:08.421Z,101072.41
2018-01-14T02:52:10.914Z,101069.50
2018-01-14T02:53:13.374Z,101070.53
2018-01-14T02:54:15.853Z,101072.77
2018-01-14T02:55:18.348Z,101076.95
2018-01-14T02:56:20.831Z,101071.48
2018-01-14T02:57:23.309Z,101079.73
2018-01-14T02:58:25.795Z,101077.91
2018-01-14T02:59:28.261Z,101075.89
2018-01-14T03:00:30.722Z,101077.58
2018-01-14T03:01:33.194Z,101081.55
2018-01-14T03:02:35.657Z,101083.13
2018-01-14T03:03:38.131Z,101075.17
2018-01-14T03:04:40.594Z,101072.99
2018-01-14T03:05:43.071Z,101073.41
2018-01-14T03:06:45.533Z,101076.92
2018-01-14T03:07:47.993Z,101066.92
2018-01-14T03:08:50.457Z,101069.69
2018-01-14T03:09:52.940Z,101070.72
2018-01-14T03:10:55.420Z,101071.20
2018-01-14T03:11:57.883Z,101072.93
2018-01-14T03:13:00.354Z,101080.20
2018-01-14T03:14:02.875Z,101074.25
2018-01-14T03:15:05.312Z,101078.89
2018-01-14T03:16:07.823Z,101074.09
2018-01-14T03:17:10.277Z,101075.66
2018-01-14T03:18:12.750Z,101075.38
2018-01-14T03:19:15.232Z,101068.63
2018-01-14T03:20:17.694Z,101071.39
2018-01-14T03:21:20.184Z,101075.44
2018-01-14T03:22:22.667Z,101070.53
2018-01-14T03:23:25.130Z,101067.67
2018-01-14T03:24:27.593Z,101064.98
2018-01-14T03:25:30.073Z,101071.41
2018-01-14T03:26:32.530Z,101073.17
2018-01-14T03:27:34.994Z,101070.77
2018-01-14T03:28:37.473Z,101065.80
2018-01-14T03:29:39.952Z,101065.84
2018-01-14T03:30:42.414Z,101059.75
2018-01-14T03:31:44.891Z,101060.25
2018-01-14T03:32:47.368Z,101058.92
2018-01-14T03:33:49.830Z,101066.81
2018-01-14T03:34:52.300Z,101065.10
2018-01-14T03:35:54.779Z,101065.43
2018-01-14T03:36:57.256Z,101069.70
2018-01-14T03:37:59.717Z,101064.50
2018-01-14T03:39:02.190Z,101064.50
2018-01-14T03:40:04.663Z,101066.48
2018-01-14T03:41:07.118Z,101055.72
2018-01-14T03:42:09.577Z,101063.47
2018-01-14T03:43:12.054Z,101065.04
2018-01-14T03:44:14.514Z,101060.70
2018-01-14T03:45:16.981Z,101051.67
2018-01-14T03:46:19.453Z,101056.28
2018-01-14T03:47:21.916Z,101058.00
2018-01-14T03:48:24.387Z,101055.70
2018-01-14T03:49:26.845Z,101058.45
2018-01-14T03:50:29.310Z,101057.30
2018-01-14T03:51:31.778Z,101056.61
2018-01-14T03:52:34.247Z,101053.97
2018-01-14T03:53:36.706Z,101054.45
2018-01-14T03:54:39.184Z,101060.51
2018-01-14T03:55:41.646Z,101050.05
2018-01-14T03:56:44.133Z,101053.95
2018-01-14T03:57:46.616Z,101061.28
2018-01-14T03:58:49.104Z,101055.33
2018-01-14T03:59:51.587Z,101058.34
2018-01-14T04:00:54.057Z,101052.70
2018-01-14T04:01:56.539Z,101059.48
2018-01-14T04:02:59.025Z,101054.48
2018-01-14T04:04:01.489Z,101055.91
2018-01-14T04:05:03.997Z,101055.16
2018-01-14T04:06:06.472Z,101055.41
2018-01-14T04:07:08.936Z,101056.28
2018-01-14T04:08:11.401Z,101054.52
2018-01-14T04:09:13.872Z,101057.17
2018-01-14T04:10:16.344Z,101053.77
2018-01-14T04:11:18.901Z,101056.91
2018-01-14T04:12:21.378Z,101057.48
2018-01-14T04:13:23.848Z,101061.03
2018-01-14T04:14:26.317Z,101061.59
2018-01-14T04:15:28.808Z,101058.20
2018-01-14T04:16:31.290Z,101062.12
2018-01-14T04:17:33.764Z,101062.15
2018-01-14T04:18:36.240Z,101065.23
2018-01-14T04:19:38.697Z,101063.36
2018-01-14T04:20:41.153Z,101058.18
2018-01-14T04:21:43.696Z,101061.83
2018-01-14T04:22:46.176Z,101061.83
2018-01-14T04:23:48.638Z,101055.55
2018-01-14T04:24:51.110Z,101052.25
2018-01-14T04:25:53.578Z,101050.45
2018-01-14T04:26:56.050Z,101053.35
2018-01-14T04:27:58.534Z,101049.45
2018-01-14T04:29:01.003Z,101057.10
2018-01-14T04:30:03.470Z,101047.97
2018-01-14T04:31:05.952Z,101052.39
2018-01-14T04:32:08.466Z,101052.21
2018-01-14T04:33:10.934Z,101045.72
2018-01-14T04:34:13.423Z,101050.23
2018-01-14T04:35:15.900Z,101052.62
2018-01-14T04:36:18.375Z,101046.09
2018-01-14T04:37:20.880Z,101048.10
2018-01-14T04:38:23.347Z,101051.06
2018-01-14T04:39:25.818Z,101047.18
2018-01-14T04:40:28.294Z,101045.52
2018-01-14T04:41:30.795Z,101048.28
2018-01-14T04:42:33.249Z,101042.88
2018-01-14T04:43:35.725Z,101041.98
2018-01-14T04:44:38.189Z,101045.77
2018-01-14T04:45:40.650Z,101037.51
2018-01-14T04:46:43.119Z,101033.86
2018-01-14T04:47:45.583Z,101037.01
2018-01-14T04:48:48.065Z,101035.20
2018-01-14T04:49:50.543Z,101042.68
2018-01-14T04:50:53.009Z,101035.14
2018-01-14T04:51:55.469Z,101034.39
2018-01-14T04:52:57.925Z,101032.43
2018-01-14T04:54:00.407Z,101035.45
2018-01-14T04:55:02.923Z,101032.30
2018-01-14T04:56:05.381Z,101034.05
2018-01-14T04:57:07.846Z,101027.32
2018-01-14T04:58:10.328Z,101032.41
2018-01-14T04:59:12.803Z,101034.86
2018-01-14T05:00:15.262Z,101031.10
2018-01-14T05:01:17.722Z,101034.13
2018-01-14T05:02:20.189Z,101037.34
2018-01-14T05:03:22.671Z,101039.22
2018-01-14T05:04:25.449Z,101041.11
2018-01-14T05:05:27.914Z,101040.43
2018-01-14T05:06:30.385Z,101040.60
2018-01-14T05:07:32.849Z,101040.66
2018-01-14T05:08:35.309Z,101034.48
2018-01-14T05:09:37.784Z,101047.98
2018-01-14T05:10:40.255Z,101039.03
2018-01-14T05:11:42.722Z,101038.91
2018-01-14T05:12:45.181Z,101038.53
2018-01-14T05:13:47.655Z,101047.52
2018-01-14T05:14:50.119Z,101043.58
2018-01-14T05:15:52.585Z,101045.28
2018-01-14T05:16:55.065Z,101043.23
2018-01-14T05:17:57.523Z,101045.91
2018-01-14T05:18:59.995Z,101043.75
2018-01-14T05:20:02.482Z,101052.69
2018-01-14T05:21:04.955Z,101050.89
2018-01-14T05:22:07.423Z,101056.73
2018-01-14T05:23:09.900Z,101050.19
2018-01-14T05:24:12.358Z,101050.89
2018-01-14T05:25:14.840Z,101052.95
2018-01-14T05:26:17.305Z,101049.06
2018-01-14T05:27:19.770Z,101051.63
2018-01-14T05:28:22.257Z,101054.78
2018-01-14T05:29:24.722Z,101052.64
2018-01-14T05:30:27.199Z,101047.23
2018-01-14T05:31:29.677Z,101048.98
2018-01-14T05:32:32.139Z,101050.17
2018-01-14T05:33:34.619Z,101056.30
2018-01-14T05:34:37.099Z,101059.58
2018-01-14T05:35:39.572Z,101056.05
2018-01-14T05:36:42.100Z,101055.33
2018-01-14T05:37:44.530Z,101056.78
2018-01-14T05:38:46.994Z,101057.19
2018-01-14T05:39:49.458Z,101052.01
2018-01-14T05:40:51.922Z,101056.94
2018-01-14T05:41:54.400Z,101055.48
2018-01-14T05:42:56.891Z,101062.95
2018-01-14T05:43:59.361Z,101059.77
2018-01-14T05:45:01.856Z,101062.09
2018-01-14T05:46:04.326Z,101062.02
2018-01-14T05:47:06.818Z,101059.89
2018-01-14T05:48:09.282Z,101063.20
2018-01-14T05:49:11.768Z,101059.95
2018-01-14T05:50:14.223Z,101055.03
2018-01-14T05:51:16.728Z,101060.97
2018-01-14T05:52:19.193Z,101049.50
2018-01-14T05:53:21.708Z,101052.70
2018-01-14T05:54:24.188Z,101053.41
2018-01-14T05:55:26.663Z,101055.92
2018-01-14T05:56:29.122Z,101047.97
2018-01-14T05:57:31.600Z,101049.36
2018-01-14T05:58:34.054Z,101050.13
2018-01-14T05:59:36.549Z,101051.52
2018-01-14T06:00:39.009Z,101044.58
2018-01-14T06:01:41.483Z,101048.36
2018-01-14T06:02:43.948Z,101041.95
2018-01-14T06:03:46.447Z,101045.22
2018-01-14T06:04:48.905Z,101057.22
2018-01-14T06:05:51.387Z,101047.90
2018-01-14T06:06:53.859Z,101045.91
2018-01-14T06:07:56.347Z,101055.59
2018-01-14T06:08:58.936Z,101060.61
2018-01-14T06:10:01.398Z,101050.36
2018-01-14T06:11:03.853Z,101054.25
2018-01-14T06:12:06.309Z,101052.98
2018-01-14T06:13:08.815Z,101052.80
2018-01-14T06:14:11.294Z,101055.95
2018-01-14T06:15:13.755Z,101054.70
2018-01-14T06:16:16.232Z,101053.59
2018-01-14T06:17:18.701Z,101055.08
2018-01-14T06:18:21.172Z,101054.94
2018-01-14T06:19:23.629Z,101061.09
2018-01-14T06:20:26.093Z,101059.92
2018-01-14T06:21:28.580Z,101061.88
2018-01-14T06:22:31.060Z,101059.26
2018-01-14T06:23:33.517Z,101060.05
2018-01-14T06:24:35.986Z,101060.19
2018-01-14T06:25:38.450Z,101060.05
2018-01-14T06:26:40.924Z,101063.28
2018-01-14T06:27:43.425Z,101061.73
2018-01-14T06:28:45.885Z,101057.65
2018-01-14T06:29:48.346Z,101057.34
2018-01-14T06:30:50.819Z,101059.36
2018-01-14T06:31:53.273Z,101052.94
2018-01-14T06:32:55.733Z,101060.95
2018-01-14T06:33:58.209Z,101056.97
2018-01-14T06:35:00.675Z,101060.67
2018-01-14T06:36:03.153Z,101056.20
2018-01-14T06:37:05.632Z,101058.98
2018-01-14T06:38:08.349Z,101063.76
2018-01-14T06:39:10.828Z,101061.11
2018-01-14T06:40:13.295Z,101061.50
2018-01-14T06:41:15.796Z,101061.50
2018-01-14T06:42:18.287Z,101064.17
2018-01-14T06:43:20.768Z,101062.53
2018-01-14T06:44:23.290Z,101070.28
2018-01-14T06:45:25.750Z,101066.92
2018-01-14T06:46:28.218Z,101066.67
2018-01-14T06:47:30.695Z,101066.95
2018-01-14T06:48:33.176Z,101066.08
2018-01-14T06:49:35.638Z,101065.95
2018-01-14T06:50:38.112Z,101065.16
2018-01-14T06:51:40.588Z,101068.93
2018-01-14T06:52:43.050Z,101068.64
2018-01-14T06:53:45.524Z,101061.05
2018-01-14T06:54:47.996Z,101063.09
2018-01-14T06:55:50.496Z,101069.21
2018-01-14T06:56:52.968Z,101070.03
2018-01-14T06:57:55.444Z,101066.56
2018-01-14T06:58:57.920Z,101060.93
2018-01-14T07:00:00.392Z,101065.22
2018-01-14T07:01:02.854Z,101060.96
2018-01-14T07:02:05.314Z,101062.41
2018-01-14T07:03:07.784Z,101061.59
2018-01-14T07:04:10.263Z,101062.55
2018-01-14T07:05:12.724Z,101067.92
2018-01-14T07:06:15.185Z,101066.52
2018-01-14T07:07:17.646Z,101068.95
2018-01-14T07:08:20.106Z,101071.95
2018-01-14T07:09:22.570Z,101073.67
2018-01-14T07:10:25.036Z,101073.73
2018-01-14T07:11:27.515Z,101072.68
2018-01-14T07:12:29.974Z,101078.48
2018-01-14T07:13:32.448Z,101075.29
2018-01-14T07:14:34.911Z,101079.31
2018-01-14T07:15:37.378Z,101069.73
2018-01-14T07:16:39.846Z,101076.13
2018-01-14T07:17:42.313Z,101077.13
2018-01-14T07:18:44.806Z,101073.55
2018-01-14T07:19:47.294Z,101081.05
2018-01-14T07:20:49.772Z,101077.20
2018-01-14T07:21:52.245Z,101079.98
2018-01-14T07:22:54.710Z,101073.75
2018-01-14T07:23:57.191Z,101073.48
2018-01-14T07:24:59.650Z,101074.10
2018-01-14T07:26:02.120Z,101070.14
2018-01-14T07:27:04.601Z,101078.64
2018-01-14T07:28:07.106Z,101075.09
2018-01-14T07:29:09.577Z,101071.31
2018-01-14T07:30:12.062Z,101075.14
2018-01-14T07:31:14.534Z,101076.17
2018-01-14T07:32:17.037Z,101078.97
2018-01-14T07:33:19.516Z,101080.23
2018-01-14T07:34:22.058Z,101079.77
2018-01-14T07:35:24.527Z,101074.23
2018-01-14T07:36:26.991Z,101079.61
2018-01-14T07:37:29.467Z,101078.19
2018-01-14T07:38:31.963Z,101076.93
2018-01-14T07:39:34.440Z,101072.75
2018-01-14T07:40:36.913Z,101071.18
2018-01-14T07:41:39.388Z,101074.37
2018-01-14T07:42:41.858Z,101065.44
2018-01-14T07:43:44.342Z,101069.74
2018-01-14T07:44:46.797Z,101080.24
2018-01-14T07:45:49.278Z,101073.81
2018-01-14T07:46:51.772Z,101079.31
2018-01-14T07:47:54.254Z,101074.85
2018-01-14T07:48:56.709Z,101080.84
2018-01-14T07:49:59.187Z,101079.63
2018-01-14T07:51:01.688Z,101074.66
2018-01-14T07:52:04.164Z,101080.03
2018-01-14T07:53:06.624Z,101073.39
2018-01-14T07:54:09.081Z,101083.00
2018-01-14T07:55:11.555Z,101080.58
2018-01-14T07:56:14.040Z,101081.38
2018-01-14T07:57:16.542Z,101086.89
2018-01-14T07:58:19.044Z,101080.80
2018-01-14T07:59:21.506Z,101083.52
2018-01-14T08:00:24.040Z,101091.91
2018-01-14T08:01:26.503Z,101089.91
2018-01-14T08:02:28.985Z,101087.02
2018-01-14T08:03:31.437Z,101092.35
2018-01-14T08:04:33.901Z,101094.21
2018-01-14T08:05:36.377Z,101098.79
2018-01-14T08:06:38.860Z,101098.22
2018-01-14T08:07:41.389Z,101097.63
2018-01-14T08:08:43.857Z,101097.44
2018-01-14T08:09:46.317Z,101095.64
2018-01-14T08:10:48.803Z,101092.97
2018-01-14T08:11:51.280Z,101100.34
2018-01-14T08:12:53.744Z,101098.88
2018-01-14T08:13:56.237Z,101097.45
2018-01-14T08:14:58.701Z,101100.49
2018-01-14T08:16:01.179Z,101106.84
2018-01-14T08:17:03.670Z,101104.63
2018-01-14T08:18:06.144Z,101105.28
2018-01-14T08:19:08.624Z,101101.87
2018-01-14T08:20:11.093Z,101105.89
2018-01-14T08:21:13.593Z,101110.63
2018-01-14T08:22:16.080Z,101106.69
2018-01-14T08:23:18.541Z,101107.69
2018-01-14T08:24:21.011Z,101104.06
2018-01-14T08:25:23.469Z,101107.87
2018-01-14T08:26:25.944Z,101110.66
2018-01-14T08:27:28.432Z,101106.26
2018-01-14T08:28:30.915Z,101111.17
2018-01-14T08:29:33.393Z,101112.65
2018-01-14T08:30:35.984Z,101109.39
2018-01-14T08:31:38.442Z,101110.79
2018-01-14T08:32:40.906Z,101112.66
2018-01-14T08:33:43.386Z,101114.22
2018-01-14T08:34:45.895Z,101116.22
2018-01-14T08:35:48.372Z,101117.39
2018-01-14T08:36:50.830Z,101113.52
2018-01-14T08:37:53.307Z,101115.69
2018-01-14T08:38:55.785Z,101112.91
2018-01-14T08:39:58.404Z,101113.39
2018-01-14T08:41:00.894Z,101112.31
2018-01-14T08:42:03.449Z,101110.22
2018-01-14T08:43:05.940Z,101103.45
2018-01-14T08:44:08.417Z,101108.79
2018-01-14T08:45:10.916Z,101108.05
2018-01-14T08:46:13.433Z,101106.70
2018-01-14T08:47:15.924Z,101104.61
2018-01-14T08:48:18.399Z,101104.45
2018-01-14T08:49:21.725Z,101105.27
2018-01-14T08:50:24.196Z,101095.84
2018-01-14T08:51:26.754Z,101104.58
2018-01-14T08:52:29.219Z,101108.18
2018-01-14T08:53:31.695Z,101112.14
2018-01-14T08:54:34.176Z,101104.06
2018-01-14T08:55:36.633Z,101111.72
2018-01-14T08:56:39.113Z,101108.56
2018-01-14T08:57:41.594Z,101109.61
2018-01-14T08:58:44.054Z,101105.91
2018-01-14T08:59:46.514Z,101109.48
2018-01-14T09:00:48.985Z,101104.56
2018-01-14T09:01:51.438Z,101105.93
2018-01-14T09:02:53.920Z,101104.55
2018-01-14T09:03:56.378Z,101107.21
2018-01-14T09:04:58.842Z,101105.44
2018-01-14T09:06:01.316Z,101106.86
2018-01-14T09:07:03.795Z,101105.44
2018-01-14T09:08:06.271Z,101103.22
2018-01-14T09:09:08.859Z,101107.70
2018-01-14T09:10:11.340Z,101102.73
2018-01-14T09:11:13.812Z,101105.63
2018-01-14T09:12:16.265Z,101105.48
2018-01-14T09:13:18.723Z,101106.86
2018-01-14T09:14:21.201Z,101115.31
2018-01-14T09:15:23.687Z,101110.34
2018-01-14T09:16:26.146Z,101114.67
2018-01-14T09:17:28.613Z,101116.25
2018-01-14T09:18:31.085Z,101115.52
2018-01-14T09:19:33.559Z,101114.83
2018-01-14T09:20:36.039Z,101109.06
2018-01-14T09:21:38.526Z,101111.05
2018-01-14T09:22:41.014Z,101100.63
2018-01-14T09:23:43.487Z,101105.13
2018-01-14T09:24:45.959Z,101102.22
2018-01-14T09:25:48.417Z,101106.39
2018-01-14T09:26:50.945Z,101104.64
2018-01-14T09:27:53.421Z,101093.19
2018-01-14T09:28:55.895Z,101105.70
2018-01-14T09:29:58.358Z,101102.58
2018-01-14T09:31:03.648Z,101100.25
2018-01-14T09:32:06.131Z,101101.54
2018-01-14T09:33:08.585Z,101107.67
2018-01-14T09:34:11.045Z,101104.30
2018-01-14T09:35:13.505Z,101103.55
2018-01-14T09:36:16.064Z,101103.16
2018-01-14T09:37:18.541Z,101098.16
2018-01-14T09:38:21.041Z,101099.02
2018-01-14T09:39:23.497Z,101103.02
2018-01-14T09:40:25.969Z,101104.58
2018-01-14T09:41:28.466Z,101103.71
2018-01-14T09:42:30.975Z,101101.04
2018-01-14T09:43:33.429Z,101098.78
2018-01-14T09:44:35.899Z,101106.23
2018-01-14T09:45:38.383Z,101106.78
2018-01-14T09:46:40.873Z,101096.27
2018-01-14T09:47:43.374Z,101095.36
2018-01-14T09:48:45.849Z,101093.64
2018-01-14T09:49:48.320Z,101094.98
2018-01-14T09:50:50.800Z,101088.98
2018-01-14T09:51:53.261Z,101094.92
2018-01-14T09:52:55.755Z,101088.88
2018-01-14T09:53:58.231Z,101095.62
2018-01-14T09:55:00.699Z,101088.03
2018-01-14T09:56:03.162Z,101086.61
2018-01-14T09:57:05.623Z,101080.44
2018-01-14T09:58:08.193Z,101085.30
2018-01-14T09:59:10.663Z,101083.97
2018-01-14T10:00:13.118Z,101085.95
2018-01-14T10:01:15.582Z,101081.89
2018-01-14T10:02:18.047Z,101086.36
2018-01-14T10:03:20.527Z,101083.45
2018-01-14T10:04:23.063Z,101081.72
2018-01-14T10:05:25.543Z,101084.97
2018-01-14T10:06:28.016Z,101082.59
2018-01-14T10:07:30.487Z,101082.06
2018-01-14T10:08:32.983Z,101081.09
2018-01-14T10:09:35.456Z,101077.90
2018-01-14T10:10:37.918Z,101079.48
2018-01-14T10:11:40.418Z,101080.58
2018-01-14T10:12:42.888Z,101077.91
2018-01-14T10:13:45.367Z,101080.13
2018-01-14T10:14:47.874Z,101086.21
2018-01-14T10:15:50.342Z,101087.53
2018-01-14T10:16:52.811Z,101085.20
2018-01-14T10:17:55.284Z,101083.26
2018-01-14T10:18:57.781Z,101083.92
2018-01-14T10:20:00.248Z,101094.67
2018-01-14T10:21:02.726Z,101074.09
2018-01-14T10:22:05.182Z,101075.98
2018-01-14T10:23:07.649Z,101076.12
2018-01-14T10:24:10.157Z,101073.30
2018-01-14T10:25:12.632Z,101079.81
2018-01-14T10:26:15.104Z,101075.82
2018-01-14T10:27:17.562Z,101080.09
2018-01-14T10:28:22.827Z,101081.34
2018-01-14T10:29:25.312Z,101086.99
2018-01-14T10:30:27.770Z,101084.83
2018-01-14T10:31:30.243Z,101085.22
2018-01-14T10:32:32.716Z,101071.12
2018-01-14T10:33:35.196Z,101080.82
2018-01-14T10:34:37.681Z,101080.86
2018-01-14T10:35:40.244Z,101095.47
2018-01-14T10:36:42.763Z,101079.40
2018-01-14T10:37:45.222Z,101085.98
2018-01-14T10:38:47.692Z,101090.84
2018-01-14T10:39:50.199Z,101071.75
2018-01-14T10:40:52.658Z,101080.14
2018-01-14T10:41:55.153Z,101078.55
2018-01-14T10:42:57.639Z,101077.25
2018-01-14T10:44:00.116Z,101076.89
2018-01-14T10:45:02.636Z,101078.58
2018-01-14T10:46:05.107Z,101072.73
2018-01-14T10:47:07.598Z,101073.59
2018-01-14T10:48:10.937Z,101074.75
2018-01-14T10:49:13.402Z,101083.32
2018-01-14T10:50:15.896Z,101077.56
2018-01-14T10:51:18.355Z,101071.03
2018-01-14T10:52:20.898Z,101082.00
2018-01-14T10:53:25.260Z,101072.30
2018-01-14T10:54:27.746Z,101067.00
2018-01-14T10:55:30.212Z,101067.27
2018-01-14T10:56:32.674Z,101076.41
2018-01-14T10:57:35.152Z,101065.09
2018-01-14T10:58:37.623Z,101061.60
2018-01-14T10:59:40.101Z,101058.37
2018-01-14T11:00:48.135Z,101068.11
2018-01-14T11:01:50.604Z,101073.52
2018-01-14T11:02:53.092Z,101055.44
2018-01-14T11:03:55.580Z,101059.96
2018-01-14T11:04:58.051Z,101074.31
2018-01-14T11:06:00.518Z,101064.58
2018-01-14T11:07:02.983Z,101065.30
2018-01-14T11:08:05.434Z,101059.16
2018-01-14T11:09:07.890Z,101052.28
2018-01-14T11:10:10.368Z,101057.02
2018-01-14T11:11:12.846Z,101058.23
2018-01-14T11:12:15.310Z,101050.89
2018-01-14T11:13:17.784Z,101058.55
2018-01-14T11:14:20.262Z,101051.50
2018-01-14T11:15:22.814Z,101057.57
2018-01-14T11:16:25.371Z,101053.57
2018-01-14T11:17:27.842Z,101053.13
2018-01-14T11:18:30.857Z,101044.98
2018-01-14T11:19:33.340Z,101051.61
2018-01-14T11:20:35.797Z,101049.92
2018-01-14T11:21:38.280Z,101053.02
2018-01-14T11:22:40.757Z,101050.05
2018-01-14T11:23:43.238Z,101056.34
2018-01-14T11:24:45.727Z,101052.62
2018-01-14T11:25:48.185Z,101052.27
2018-01-14T11:26:50.662Z,101058.06
2018-01-14T11:27:53.139Z,101055.42
2018-01-14T11:28:55.613Z,101049.66
2018-01-14T11:30:08.206Z,101044.36
2018-01-14T11:31:10.684Z,101049.22
2018-01-14T11:32:13.169Z,101056.72
2018-01-14T11:33:15.626Z,101051.11
2018-01-14T11:34:18.090Z,101046.06
2018-01-14T11:35:20.569Z,101038.67
2018-01-14T11:36:23.030Z,101043.20
2018-01-14T11:37:25.545Z,101043.32
2018-01-14T11:38:28.009Z,101041.53
2018-01-14T11:39:30.465Z,101040.31
2018-01-14T11:40:32.952Z,101040.56
2018-01-14T11:41:35.423Z,101049.32
2018-01-14T11:42:37.928Z,101047.20
2018-01-14T11:43:40.386Z,101040.34
2018-01-14T11:44:42.980Z,101049.50
2018-01-14T11:45:45.614Z,101050.98
2018-01-14T11:46:48.197Z,101046.34
2018-01-14T11:47:50.696Z,101041.76
2018-01-14T11:48:53.160Z,101043.94
2018-01-14T11:49:55.621Z,101056.47
2018-01-14T11:50:58.152Z,101048.17
2018-01-14T11:52:00.679Z,101049.66
2018-01-14T11:53:03.160Z,101043.45